^^
Weerstation Beverwaard
 
Daily Summary for August 20, 2018 Units:  Both    English   Metric

Notice: Undefined index: PHPSELF in C:\OpenGrADS\Contents\tmp\WU-History-inc.php on line 388
Daily Weekly Monthly Yearly Custom
  Current: High: Low: Average:
Temperature: 69.1 °F /  20.6 °C 69.1 °F /  20.6 °C 66.7 °F /  19.3 °C 67.3 °F /  19.6 °C
Dew Point: 62.2 °F /  16.8 °C 65.1 °F /  18.4 °C 62.1 °F /  16.7 °C 63.7 °F /  17.6 °C
Humidity: 79% 93% 79% 88%
Wind Speed: 9mph /  14.5km/h 9mph /  14.5km/h - 0.8mph /  1.3km/h
Wind Gust: 4.6mph /  7.4km/h 5mph /  8.0km/h - -
WindNW - - WNW
Pressure: 30.1 in /  1019.2 hPa 30.1 in /  1019.2 hPa 30 in /  1016.9 hPa -
Precipitation: 0 in /  0.0 mm      
Historical Graphs
 
 
Tabular Data for August 20, 2018
Time Temperature Dew Point Pressure Wind Wind Speed Wind Gust Humidity Rainfall Rate (Hourly) solar Conditions
00:04 66.9 °F /  19.4 °C 62.2 °F /  16.8 °C 30in /  1017.4hPa Calm     85% 0in /  0.0mm 0.00 W/m2 BKN
00:09 66.9 °F /  19.4 °C 62.2 °F /  16.8 °C 30in /  1017.4hPa Calm     85% 0in /  0.0mm 0.00 W/m2 BKN
00:14 66.9 °F /  19.4 °C 62.6 °F /  17.0 °C 30.1in /  1017.5hPa Calm     86% 0in /  0.0mm 0.00 W/m2 BKN
00:19 66.9 °F /  19.4 °C 62.6 °F /  17.0 °C 30.1in /  1017.5hPa Calm     86% 0in /  0.0mm 0.00 W/m2 BKN
00:24 66.9 °F /  19.4 °C 62.6 °F /  17.0 °C 30.1in /  1017.5hPa Calm     86% 0in /  0.0mm 0.00 W/m2 BKN
00:29 66.9 °F /  19.4 °C 62.8 °F /  17.1 °C 30.1in /  1017.5hPa Calm     86% 0in /  0.0mm 0.00 W/m2 BKN
00:34 66.9 °F /  19.4 °C 62.8 °F /  17.1 °C 30.1in /  1017.5hPa Calm     86% 0in /  0.0mm 0.00 W/m2 OVC
00:39 67.1 °F /  19.5 °C 63.1 °F /  17.3 °C 30.1in /  1017.5hPa Calm     87% 0in /  0.0mm 0.00 W/m2 OVC
00:44 67.1 °F /  19.5 °C 63.1 °F /  17.3 °C 30.1in /  1017.6hPa Calm     87% 0in /  0.0mm 0.00 W/m2 OVC
00:49 67.3 °F /  19.6 °C 63.1 °F /  17.3 °C 30.1in /  1017.5hPa Calm     87% 0in /  0.0mm 0.00 W/m2 OVC
00:54 67.3 °F /  19.6 °C 63.1 °F /  17.3 °C 30.1in /  1017.5hPa Calm     87% 0in /  0.0mm 0.00 W/m2 OVC
00:59 67.3 °F /  19.6 °C 63.3 °F /  17.4 °C 30in /  1017.4hPa Calm     87% 0in /  0.0mm 0.00 W/m2 OVC
01:04 67.5 °F /  19.7 °C 63.3 °F /  17.4 °C 30.1in /  1017.5hPa Calm     87% 0in /  0.0mm 0.00 W/m2 OVC
01:09 67.5 °F /  19.7 °C 63.3 °F /  17.4 °C 30in /  1017.4hPa Calm     87% 0in /  0.0mm 0.00 W/m2 OVC
01:14 67.5 °F /  19.7 °C 63.3 °F /  17.4 °C 30in /  1017.4hPa Calm     87% 0in /  0.0mm 0.00 W/m2 OVC
01:19 67.5 °F /  19.7 °C 63.7 °F /  17.6 °C 30in /  1017.4hPa Calm     88% 0in /  0.0mm 0.00 W/m2 OVC
01:24 67.5 °F /  19.7 °C 63.7 °F /  17.6 °C 30in /  1017.3hPa Calm     88% 0in /  0.0mm 0.00 W/m2 OVC
01:29 67.3 °F /  19.6 °C 63.7 °F /  17.6 °C 30in /  1017.3hPa Calm     88% 0in /  0.0mm 0.00 W/m2 OVC
01:35 67.3 °F /  19.6 °C 63.7 °F /  17.6 °C 30in /  1017.3hPa Calm     88% 0in /  0.0mm 0.00 W/m2 OVC
01:39 67.3 °F /  19.6 °C 63.5 °F /  17.5 °C 30in /  1017.3hPa Calm     88% 0in /  0.0mm 0.00 W/m2 OVC
01:44 67.3 °F /  19.6 °C 63.9 °F /  17.7 °C 30in /  1017.3hPa Calm     89% 0in /  0.0mm 0.00 W/m2 OVC
01:49 67.3 °F /  19.6 °C 63.9 °F /  17.7 °C 30in /  1017.3hPa Calm     89% 0in /  0.0mm 0.00 W/m2 OVC
01:54 67.3 °F /  19.6 °C 63.9 °F /  17.7 °C 30in /  1017.3hPa Calm     89% 0in /  0.0mm 0.00 W/m2 OVC
01:59 67.3 °F /  19.6 °C 63.9 °F /  17.7 °C 30in /  1017.2hPa Calm     89% 0in /  0.0mm 0.00 W/m2 OVC
02:04 67.3 °F /  19.6 °C 64.2 °F /  17.9 °C 30in /  1017.1hPa Calm     90% 0in /  0.0mm 0.00 W/m2 OVC
02:09 67.3 °F /  19.6 °C 64.2 °F /  17.9 °C 30in /  1017.2hPa Calm     90% 0in /  0.0mm 0.00 W/m2 OVC
02:14 67.3 °F /  19.6 °C 64.6 °F /  18.1 °C 30in /  1017.1hPa Calm     91% 0in /  0.0mm 0.00 W/m2 OVC
02:19 67.1 °F /  19.5 °C 64.4 °F /  18.0 °C 30in /  1017.2hPa Calm     91% 0in /  0.0mm 0.00 W/m2 OVC
02:24 66.9 °F /  19.4 °C 64.2 °F /  17.9 °C 30in /  1017.1hPa Calm     91% 0in /  0.0mm 0.00 W/m2 OVC
02:29 66.9 °F /  19.4 °C 64.2 °F /  17.9 °C 30in /  1017.2hPa Calm     91% 0in /  0.0mm 0.00 W/m2 OVC
02:34 66.9 °F /  19.4 °C 64.6 °F /  18.1 °C 30in /  1017.1hPa Calm     92% 0in /  0.0mm 0.00 W/m2 OVC
02:39 66.9 °F /  19.4 °C 64.6 °F /  18.1 °C 30in /  1017.1hPa Calm     92% 0in /  0.0mm 0.00 W/m2 OVC
02:44 66.7 °F /  19.3 °C 64.4 °F /  18.0 °C 30in /  1017.0hPa Calm     92% 0in /  0.0mm 0.00 W/m2 OVC
02:49 66.7 °F /  19.3 °C 64.4 °F /  18.0 °C 30in /  1017.0hPa Calm     92% 0in /  0.0mm 0.00 W/m2 OVC
02:54 66.7 °F /  19.3 °C 64.4 °F /  18.0 °C 30in /  1017.0hPa Calm     92% 0in /  0.0mm 0.00 W/m2 OVC
02:59 66.7 °F /  19.3 °C 64.4 °F /  18.0 °C 30in /  1017.1hPa Calm     92% 0in /  0.0mm 0.00 W/m2 OVC
03:04 66.9 °F /  19.4 °C 64.6 °F /  18.1 °C 30in /  1017.1hPa Calm     92% 0in /  0.0mm 0.00 W/m2 BKN
03:09 66.9 °F /  19.4 °C 64.6 °F /  18.1 °C 30in /  1017.2hPa Calm     92% 0in /  0.0mm 0.00 W/m2 BKN
03:14 66.9 °F /  19.4 °C 64.6 °F /  18.1 °C 30in /  1017.2hPa Calm     92% 0in /  0.0mm 0.00 W/m2 BKN
03:19 66.9 °F /  19.4 °C 64.6 °F /  18.1 °C 30in /  1017.2hPa Calm     92% 0in /  0.0mm 0.00 W/m2 BKN
03:24 66.9 °F /  19.4 °C 64.6 °F /  18.1 °C 30in /  1017.2hPa Calm     92% 0in /  0.0mm 0.00 W/m2 BKN
03:29 66.9 °F /  19.4 °C 64.6 °F /  18.1 °C 30in /  1017.2hPa Calm     92% 0in /  0.0mm 0.00 W/m2 BKN
03:34 66.9 °F /  19.4 °C 64.6 °F /  18.1 °C 30in /  1017.2hPa Calm     92% 0in /  0.0mm 0.00 W/m2 OVC
03:39 66.9 °F /  19.4 °C 64.6 °F /  18.1 °C 30in /  1017.2hPa Calm     92% 0in /  0.0mm 0.00 W/m2 OVC
03:44 66.9 °F /  19.4 °C 64.6 °F /  18.1 °C 30in /  1017.2hPa Calm     92% 0in /  0.0mm 0.00 W/m2 OVC
03:49 67.1 °F /  19.5 °C 64.8 °F /  18.2 °C 30in /  1017.2hPa Calm     92% 0in /  0.0mm 0.00 W/m2 OVC
03:53 67.1 °F /  19.5 °C 64.8 °F /  18.2 °C 30in /  1017.2hPa Calm     92% 0in /  0.0mm 0.00 W/m2 OVC
03:59 67.1 °F /  19.5 °C 64.8 °F /  18.2 °C 30in /  1017.2hPa Calm     92% 0in /  0.0mm 0.00 W/m2 OVC
04:04 67.1 °F /  19.5 °C 64.8 °F /  18.2 °C 30in /  1017.2hPa Calm     92% 0in /  0.0mm 0.00 W/m2 BKN
04:09 67.1 °F /  19.5 °C 64.8 °F /  18.2 °C 30in /  1017.2hPa Calm     92% 0in /  0.0mm 0.00 W/m2 BKN
04:14 67.3 °F /  19.6 °C 64.8 °F /  18.2 °C 30in /  1017.2hPa Calm     92% 0in /  0.0mm 0.00 W/m2 BKN
04:19 67.3 °F /  19.6 °C 64.8 °F /  18.2 °C 30in /  1017.2hPa Calm     92% 0in /  0.0mm 0.00 W/m2 BKN
04:24 67.3 °F /  19.6 °C 64.8 °F /  18.2 °C 30in /  1017.2hPa Calm     92% 0in /  0.0mm 0.00 W/m2 BKN
04:29 67.3 °F /  19.6 °C 64.8 °F /  18.2 °C 30in /  1017.2hPa Calm     92% 0in /  0.0mm 0.00 W/m2 BKN
04:34 67.3 °F /  19.6 °C 64.8 °F /  18.2 °C 30in /  1017.2hPa Calm     92% 0in /  0.0mm 0.00 W/m2 BKN
04:39 67.3 °F /  19.6 °C 64.8 °F /  18.2 °C 30in /  1017.2hPa Calm     92% 0in /  0.0mm 0.00 W/m2 BKN
04:44 67.3 °F /  19.6 °C 64.8 °F /  18.2 °C 30in /  1017.2hPa Calm     92% 0in /  0.0mm 0.00 W/m2 BKN
04:49 67.3 °F /  19.6 °C 64.9 °F /  18.3 °C 30in /  1017.2hPa Calm     92% 0in /  0.0mm 0.00 W/m2 BKN
04:54 67.3 °F /  19.6 °C 64.9 °F /  18.3 °C 30in /  1017.1hPa Calm     92% 0in /  0.0mm 0.00 W/m2 BKN
04:59 67.3 °F /  19.6 °C 64.9 °F /  18.3 °C 30in /  1017.1hPa Calm     92% 0in /  0.0mm 0.00 W/m2 BKN
05:04 67.3 °F /  19.6 °C 64.9 °F /  18.3 °C 30in /  1017.1hPa Calm     92% 0in /  0.0mm 0.00 W/m2 BKN
05:09 67.3 °F /  19.6 °C 64.9 °F /  18.3 °C 30in /  1017.0hPa Calm     92% 0in /  0.0mm 0.00 W/m2 BKN
05:14 67.3 °F /  19.6 °C 64.9 °F /  18.3 °C 30in /  1017.0hPa Calm     92% 0in /  0.0mm 0.00 W/m2 BKN
05:19 67.3 °F /  19.6 °C 64.9 °F /  18.3 °C 30in /  1017.0hPa Calm     92% 0in /  0.0mm 0.00 W/m2 BKN
05:24 67.3 °F /  19.6 °C 64.9 °F /  18.3 °C 30in /  1017.0hPa Calm     92% 0in /  0.0mm 0.00 W/m2 BKN
05:29 67.3 °F /  19.6 °C 64.9 °F /  18.3 °C 30in /  1017.0hPa Calm     92% 0in /  0.0mm 0.00 W/m2 BKN
05:34 67.3 °F /  19.6 °C 64.9 °F /  18.3 °C 30in /  1017.0hPa Calm     92% 0in /  0.0mm 0.00 W/m2 BKN
05:39 67.3 °F /  19.6 °C 64.9 °F /  18.3 °C 30in /  1017.0hPa Calm     92% 0in /  0.0mm 0.00 W/m2 BKN
05:44 67.3 °F /  19.6 °C 64.9 °F /  18.3 °C 30in /  1017.0hPa Calm     92% 0in /  0.0mm 0.00 W/m2 BKN
05:49 67.3 °F /  19.6 °C 64.9 °F /  18.3 °C 30in /  1016.9hPa Calm     92% 0in /  0.0mm 0.00 W/m2 BKN
05:54 67.3 °F /  19.6 °C 64.9 °F /  18.3 °C 30in /  1017.0hPa Calm     92% 0in /  0.0mm 0.00 W/m2 BKN
05:59 67.3 °F /  19.6 °C 64.9 °F /  18.3 °C 30in /  1017.0hPa Calm     92% 0in /  0.0mm 0.00 W/m2 BKN
06:03 67.3 °F /  19.6 °C 64.9 °F /  18.3 °C 30in /  1016.9hPa Calm     92% 0in /  0.0mm 0.00 W/m2 CLR
06:09 67.3 °F /  19.6 °C 64.8 °F /  18.2 °C 30in /  1017.0hPa Calm     92% 0in /  0.0mm 0.00 W/m2 CLR
06:14 67.3 °F /  19.6 °C 64.8 °F /  18.2 °C 30in /  1017.0hPa Calm     92% 0in /  0.0mm 0.00 W/m2 CLR
06:19 67.3 °F /  19.6 °C 65.1 °F /  18.4 °C 30in /  1017.1hPa Calm     93% 0in /  0.0mm 0.00 W/m2 CLR
06:24 67.1 °F /  19.5 °C 64.9 °F /  18.3 °C 30in /  1017.1hPa Calm     93% 0in /  0.0mm 0.00 W/m2 CLR
06:29 67.1 °F /  19.5 °C 64.8 °F /  18.2 °C 30in /  1017.1hPa Calm     92% 0in /  0.0mm 0.00 W/m2 CLR
06:34 67.1 °F /  19.5 °C 64.9 °F /  18.3 °C 30in /  1017.1hPa Calm     93% 0in /  0.0mm 0.00 W/m2 SCT
06:39 66.9 °F /  19.4 °C 64.9 °F /  18.3 °C 30in /  1017.1hPa Calm     93% 0in /  0.0mm 0.00 W/m2 SCT
06:44 66.9 °F /  19.4 °C 64.9 °F /  18.3 °C 30in /  1017.2hPa Calm     93% 0in /  0.0mm 0.00 W/m2 SCT
06:49 66.9 °F /  19.4 °C 64.6 °F /  18.1 °C 30in /  1017.2hPa Calm     92% 0in /  0.0mm 5.00 W/m2 SCT
06:54 66.9 °F /  19.4 °C 64.6 °F /  18.1 °C 30in /  1017.2hPa Calm     92% 0in /  0.0mm 5.00 W/m2 SCT
06:59 66.9 °F /  19.4 °C 64.6 °F /  18.1 °C 30in /  1017.2hPa Calm     92% 0in /  0.0mm 7.00 W/m2 SCT
07:04 66.9 °F /  19.4 °C 64.2 °F /  17.9 °C 30in /  1017.2hPa Calm     91% 0in /  0.0mm 7.00 W/m2 OVC
07:09 66.9 °F /  19.4 °C 63.9 °F /  17.7 °C 30in /  1017.3hPa Calm     90% 0in /  0.0mm 7.00 W/m2 OVC
07:14 66.9 °F /  19.4 °C 63.9 °F /  17.7 °C 30in /  1017.3hPa Calm     90% 0in /  0.0mm 9.00 W/m2 OVC
07:19 66.9 °F /  19.4 °C 63.7 °F /  17.6 °C 30in /  1017.3hPa Calm     89% 0in /  0.0mm 11.00 W/m2 OVC
07:24 67.1 °F /  19.5 °C 63.7 °F /  17.6 °C 30in /  1017.4hPa Calm     89% 0in /  0.0mm 12.00 W/m2 OVC
07:29 67.1 °F /  19.5 °C 63.3 °F /  17.4 °C 30in /  1017.4hPa Calm     88% 0in /  0.0mm 14.00 W/m2 OVC
07:34 67.1 °F /  19.5 °C 63.3 °F /  17.4 °C 30in /  1017.4hPa Calm     88% 0in /  0.0mm 18.00 W/m2 OVC
07:39 67.1 °F /  19.5 °C 63.3 °F /  17.4 °C 30.1in /  1017.5hPa Calm     88% 0in /  0.0mm 21.00 W/m2 OVC
07:44 67.1 °F /  19.5 °C 63.3 °F /  17.4 °C 30.1in /  1017.5hPa Calm     88% 0in /  0.0mm 26.00 W/m2 OVC
07:49 67.3 °F /  19.6 °C 63.5 °F /  17.5 °C 30.1in /  1017.6hPa Calm     88% 0in /  0.0mm 26.00 W/m2 OVC
07:54 67.3 °F /  19.6 °C 63.1 °F /  17.3 °C 30.1in /  1017.6hPa Calm     87% 0in /  0.0mm 32.00 W/m2 OVC
07:59 67.3 °F /  19.6 °C 63.5 °F /  17.5 °C 30.1in /  1017.7hPa Calm     88% 0in /  0.0mm 42.00 W/m2 OVC
08:04 67.3 °F /  19.6 °C 63.5 °F /  17.5 °C 30.1in /  1017.8hPa Calm     88% 0in /  0.0mm 51.00 W/m2 OVC
08:09 67.3 °F /  19.6 °C 63.1 °F /  17.3 °C 30.1in /  1017.7hPa Calm     87% 0in /  0.0mm 54.00 W/m2 OVC
08:14 67.3 °F /  19.6 °C 63.1 °F /  17.3 °C 30.1in /  1017.8hPa Calm     87% 0in /  0.0mm 54.00 W/m2 OVC
08:19 67.3 °F /  19.6 °C 63.1 °F /  17.3 °C 30.1in /  1017.8hPa Calm     87% 0in /  0.0mm 51.00 W/m2 OVC
08:24 67.3 °F /  19.6 °C 63.1 °F /  17.3 °C 30.1in /  1017.8hPa Calm     87% 0in /  0.0mm 58.00 W/m2 OVC
08:29 67.3 °F /  19.6 °C 63.1 °F /  17.3 °C 30.1in /  1017.8hPa Calm     87% 0in /  0.0mm 62.00 W/m2 OVC
08:34 67.3 °F /  19.6 °C 63 °F /  17.2 °C 30.1in /  1017.8hPa Calm     86% 0in /  0.0mm 62.00 W/m2 OVC
08:39 67.3 °F /  19.6 °C 63 °F /  17.2 °C 30.1in /  1018.1hPa Calm     86% 0in /  0.0mm 54.00 W/m2 OVC
08:44 67.3 °F /  19.6 °C 63 °F /  17.2 °C 30.1in /  1018.0hPa Calm     86% 0in /  0.0mm 63.00 W/m2 OVC
08:49 67.3 °F /  19.6 °C 62.4 °F /  16.9 °C 30.1in /  1018.1hPa Calm     85% 0in /  0.0mm 58.00 W/m2 OVC
08:54 67.3 °F /  19.6 °C 62.6 °F /  17.0 °C 30.1in /  1018.1hPa Calm     85% 0in /  0.0mm 69.00 W/m2 OVC
08:59 67.3 °F /  19.6 °C 62.6 °F /  17.0 °C 30.1in /  1018.2hPa Calm     85% 0in /  0.0mm 67.00 W/m2 OVC
09:04 67.3 °F /  19.6 °C 62.6 °F /  17.0 °C 30.1in /  1018.2hPa Calm     85% 0in /  0.0mm 72.00 W/m2 OVC
09:09 67.3 °F /  19.6 °C 62.6 °F /  17.0 °C 30.1in /  1018.2hPa Calm     85% 0in /  0.0mm 77.00 W/m2 OVC
09:14 67.3 °F /  19.6 °C 62.6 °F /  17.0 °C 30.1in /  1018.2hPa Calm     85% 0in /  0.0mm 91.00 W/m2 OVC
09:19 67.3 °F /  19.6 °C 62.6 °F /  17.0 °C 30.1in /  1018.2hPa Calm     85% 0in /  0.0mm 93.00 W/m2 OVC
09:24 67.5 °F /  19.7 °C 62.8 °F /  17.1 °C 30.1in /  1018.3hPa Calm     85% 0in /  0.0mm 134.00 W/m2 OVC
09:29 67.6 °F /  19.8 °C 63 °F /  17.2 °C 30.1in /  1018.3hPa Calm     85% 0in /  0.0mm 144.00 W/m2 OVC
09:34 67.8 °F /  19.9 °C 62.8 °F /  17.1 °C 30.1in /  1018.4hPa North 3.5mph /  5.6km/h 2.1mph /  3.4km/h 84% 0in /  0.0mm 130.00 W/m2 BKN
09:39 67.8 °F /  19.9 °C 62.4 °F /  16.9 °C 30.1in /  1018.5hPa NW 6mph /  9.7km/h 5mph /  8.0km/h 83% 0in /  0.0mm 132.00 W/m2 BKN
09:44 67.8 °F /  19.9 °C 62.4 °F /  16.9 °C 30.1in /  1018.5hPa West 4.6mph /  7.4km/h 3.2mph /  5.1km/h 83% 0in /  0.0mm 120.00 W/m2 BKN
09:49 68 °F /  20.0 °C 62.6 °F /  17.0 °C 30.1in /  1018.5hPa SW 3.5mph /  5.6km/h 1.5mph /  2.4km/h 83% 0in /  0.0mm 132.00 W/m2 BKN
09:54 68.2 °F /  20.1 °C 62.8 °F /  17.1 °C 30.1in /  1018.5hPa SSW 4.6mph /  7.4km/h 4.3mph /  6.9km/h 83% 0in /  0.0mm 146.00 W/m2 BKN
09:59 68.2 °F /  20.1 °C 62.4 °F /  16.9 °C 30.1in /  1018.6hPa NW 3.5mph /  5.6km/h 1.7mph /  2.7km/h 82% 0in /  0.0mm 142.00 W/m2 BKN
10:04 68.4 °F /  20.2 °C 62.6 °F /  17.0 °C 30.1in /  1018.7hPa North 3.5mph /  5.6km/h 2.7mph /  4.3km/h 82% 0in /  0.0mm 139.00 W/m2 BKN
10:09 68.4 °F /  20.2 °C 62.8 °F /  17.1 °C 30.1in /  1018.8hPa SSW 5.8mph /  9.3km/h 1.8mph /  2.9km/h 82% 0in /  0.0mm 165.00 W/m2 BKN
10:14 68.4 °F /  20.2 °C 62.8 °F /  17.1 °C 30.1in /  1018.8hPa North 3.5mph /  5.6km/h 2.1mph /  3.4km/h 82% 0in /  0.0mm 153.00 W/m2 BKN
10:19 68.4 °F /  20.2 °C 62.8 °F /  17.1 °C 30.1in /  1018.9hPa WNW 4.6mph /  7.4km/h 4.2mph /  6.8km/h 82% 0in /  0.0mm 144.00 W/m2 BKN
10:24 68.4 °F /  20.2 °C 62.8 °F /  17.1 °C 30.1in /  1018.9hPa North 5.8mph /  9.3km/h 4.9mph /  7.9km/h 82% 0in /  0.0mm 141.00 W/m2 BKN
10:29 68.4 °F /  20.2 °C 62.8 °F /  17.1 °C 30.1in /  1018.9hPa WNW 5.8mph /  9.3km/h 2.5mph /  4.0km/h 82% 0in /  0.0mm 149.00 W/m2 BKN
10:34 68.4 °F /  20.2 °C 62.2 °F /  16.8 °C 30.1in /  1018.9hPa SW 3.5mph /  5.6km/h 0.9mph /  1.4km/h 81% 0in /  0.0mm 153.00 W/m2 OVC
10:39 68.5 °F /  20.3 °C 62.4 °F /  16.9 °C 30.1in /  1019.0hPa WNW 4.6mph /  7.4km/h 2.8mph /  4.5km/h 81% 0in /  0.0mm 174.00 W/m2 OVC
10:44 68.5 °F /  20.3 °C 62.4 °F /  16.9 °C 30.1in /  1019.1hPa SW 3.5mph /  5.6km/h 1.4mph /  2.3km/h 81% 0in /  0.0mm 178.00 W/m2 OVC
10:49 68.7 °F /  20.4 °C 62.2 °F /  16.8 °C 30.1in /  1019.1hPa NW 6.9mph /  11.1km/h 4.4mph /  7.1km/h 80% 0in /  0.0mm 195.00 W/m2 OVC
10:54 68.7 °F /  20.4 °C 62.1 °F /  16.7 °C 30.1in /  1019.1hPa North 6.9mph /  11.1km/h 4.1mph /  6.6km/h 79% 0in /  0.0mm 149.00 W/m2 OVC
10:59 68.5 °F /  20.3 °C 62.2 °F /  16.8 °C 30.1in /  1019.2hPa WNW 7mph /  11.3km/h 3.2mph /  5.1km/h 80% 0in /  0.0mm 151.00 W/m2 OVC
11:04 68.7 °F /  20.4 °C 62.2 °F /  16.8 °C 30.1in /  1019.2hPa North 4.6mph /  7.4km/h 3.9mph /  6.3km/h 80% 0in /  0.0mm 153.00 W/m2 OVC
11:09 68.7 °F /  20.4 °C 62.4 °F /  16.9 °C 30.1in /  1019.2hPa NW 4mph /  6.4km/h 3.2mph /  5.1km/h 80% 0in /  0.0mm 160.00 W/m2 OVC
11:14 69.1 °F /  20.6 °C 62.6 °F /  17.0 °C 30.1in /  1019.2hPa NW 3.5mph /  5.6km/h 1.7mph /  2.7km/h 80% 0in /  0.0mm 163.00 W/m2 OVC
11:19 69.1 °F /  20.6 °C 62.2 °F /  16.8 °C 30.1in /  1019.2hPa NW 9mph /  14.5km/h 4.6mph /  7.4km/h 79% 0in /  0.0mm 246.00 W/m2 OVC
Rotterdam Beverwaard Nederland
Compliments of Weather Underground - 2 mb